KBCE

Details ICAO KBCE (BCE)
Name BRYCE CANYON
Region United States
Timezone America/Denver (UTC-6.0)
Plans Departing 9
Arriving 14
Stats Elevation 7,590 ft / 2,313 m (AMSL)
Location 37.706370° -112.145471°
Runways 1
Magnetic Variation 10.974° E
Sunrise 2018-05-25 12:13:14 UTC / 2018-05-25 06:13:14 Local
Sunset 2018-05-26 02:40:45 UTC / 2018-05-25 20:40:45 Local
Advertisement - Login to hide

Runways

ID Width Length Bearing (true) Bearing (mag) Surface Threshold Offset Overrun Length
03 75 ft / 23 m 7,399 ft / 2,255 m 46.37° 35.40° Asphalt 0 ft / 0 m 0 ft / 0 m
21 75 ft / 23 m 7,399 ft / 2,255 m 226.38° 215.41° Asphalt 0 ft / 0 m 0 ft / 0 m

Map

Weather


0- 5 10 15 20 25 30 35+ Temperature / ° C

Clouds and Precipitation
Forecast for 2018-05-25 18:00 UTC. Updated 2 hours ago

Ground ~20,000 ft ~40,000 ft Winds

METAR

KBCE 251853Z AUTO 17018G26KT 10SM CLR 21/M12 A3023 RMK AO2 PK WND 15026/1833 SLP134 T02061117

TAF

KBCE 251729Z 2518/2618 17016G24KT P6SM SKC FM260300 23007KT P6SM SKC

Frequencies

Recorded 135.47 MHz ASOS
Unicom 122.80 MHz CTAF/UNICOM
Warning: Do not use this data for real-world aviation or navigation. No guarantee of current accuracy is given.